Time;durP1;ratioP1;P1;durP2;ratioP2;P2;SDS_P1;SDS_P2;PMS_P1;PMS_P2;Temp;Humidity;BMP_temperature;BMP_pressure;BME280_temperature;BME280_humidity;BME280_pressure;Samples;Min_cycle;Max_cycle;Signal;HPM_P1;HPM_P2
2022/10/10 11:40:54;;;;;;;9.70;5.80;;;15.60;99.90;;;;;;6261267;22;1307319;-79
2022/10/10 11:43:28;;;;;;;14.70;6.43;;;15.50;99.90;;;;;;6248971;23;20028;-80
2022/10/10 11:46:01;;;;;;;13.27;6.60;;;15.40;99.90;;;;;;6249730;23;20030;-80
2022/10/10 11:48:49;;;;;;;10.77;6.32;;;15.30;99.90;;;;;;6249611;22;20047;-80
2022/10/10 11:51:29;;;;;;;15.15;6.85;;;15.20;99.90;;;;;;6247796;22;20035;-81
2022/10/10 11:54:00;;;;;;;11.32;6.90;;;15.10;99.90;;;;;;6246491;22;20046;-79
2022/10/10 11:56:33;;;;;;;14.77;7.13;;;15.30;99.90;;;;;;6247694;22;20146;-81
2022/10/10 11:59:16;;;;;;;16.85;6.35;;;15.10;99.90;;;;;;6246929;22;20017;-80
2022/10/10 12:01:46;;;;;;;9.50;6.30;;;15.00;99.90;;;;;;6244419;23;20067;-81
2022/10/10 12:04:12;;;;;;;15.68;7.38;;;15.10;99.90;;;;;;6246671;22;20122;-81
2022/10/10 12:06:46;;;;;;;14.07;7.05;;;15.00;99.90;;;;;;6246903;22;20008;-81
2022/10/10 12:09:27;;;;;;;13.13;7.07;;;15.00;99.90;;;;;;6244977;23;20027;-80
2022/10/10 12:11:55;;;;;;;15.07;7.72;;;15.00;99.90;;;;;;6247006;22;20026;-80
2022/10/10 12:14:25;;;;;;;15.45;7.03;;;14.90;99.90;;;;;;6220279;23;20345;-81
2022/10/10 12:16:51;;;;;;;12.95;7.70;;;14.90;99.90;;;;;;6244964;23;20023;-80
2022/10/10 12:19:22;;;;;;;13.45;7.85;;;14.90;99.90;;;;;;6245424;23;20016;-80
2022/10/10 12:22:01;;;;;;;10.40;7.28;;;14.90;99.90;;;;;;6248383;22;20016;-80
2022/10/10 12:24:30;;;;;;;17.10;8.23;;;14.90;99.90;;;;;;6248300;22;20065;-81
2022/10/10 12:26:55;;;;;;;17.85;8.68;;;15.10;99.90;;;;;;6248407;22;20016;-81
2022/10/10 12:30:06;;;;;;;14.13;8.48;;;15.00;99.90;;;;;;6248135;23;20020;-81
2022/10/10 12:32:46;;;;;;;15.35;8.73;;;15.00;99.90;;;;;;6247563;23;20020;-80
2022/10/10 12:35:34;;;;;;;14.45;8.25;;;15.10;99.90;;;;;;6248507;22;20013;-80
2022/10/10 12:38:22;;;;;;;15.60;8.40;;;14.90;99.90;;;;;;6246943;23;20179;-83
2022/10/10 12:41:08;;;;;;;14.98;8.75;;;14.90;99.90;;;;;;6247129;22;20019;-81
2022/10/10 12:43:41;;;;;;;12.32;8.10;;;14.90;99.90;;;;;;6247738;22;20101;-81
2022/10/10 12:46:25;;;;;;;18.58;10.00;;;14.80;99.90;;;;;;6250111;22;20012;-81
2022/10/10 12:49:15;;;;;;;17.75;9.68;;;14.80;99.90;;;;;;6248361;23;20035;-80
2022/10/10 12:51:42;;;;;;;13.82;9.13;;;14.70;99.90;;;;;;6246875;23;20158;-82
2022/10/10 12:54:22;;;;;;;16.05;9.80;;;14.60;99.90;;;;;;6249750;22;20013;-80
2022/10/10 12:56:52;;;;;;;17.00;9.75;;;14.60;99.90;;;;;;6247713;23;20098;-80
2022/10/10 12:59:24;;;;;;;16.25;9.85;;;14.60;99.90;;;;;;6248282;22;20384;-80
2022/10/10 13:01:55;;;;;;;16.02;9.35;;;14.50;99.90;;;;;;6245301;22;20051;-80
2022/10/10 13:04:23;;;;;;;24.67;10.30;;;14.70;99.90;;;;;;6245721;22;20023;-81
2022/10/10 13:06:53;;;;;;;23.63;10.07;;;14.40;99.90;;;;;;6245906;22;20012;-80
2022/10/10 13:09:22;;;;;;;19.35;10.93;;;14.40;99.90;;;;;;6239261;22;20789;-79
2022/10/10 13:11:56;;;;;;;16.60;9.50;;;14.30;99.90;;;;;;6246917;22;20020;-78
2022/10/10 13:14:24;;;;;;;17.55;10.48;;;14.20;99.90;;;;;;6219909;23;20018;-79
2022/10/10 13:16:50;;;;;;;22.17;10.75;;;14.10;99.90;;;;;;6247107;23;20024;-77
2022/10/10 13:19:24;;;;;;;17.80;11.50;;;13.60;99.90;;;;;;6246749;22;20012;-78
2022/10/10 13:21:53;;;;;;;20.45;11.77;;;14.10;99.90;;;;;;6246639;23;20047;-78
2022/10/10 13:24:30;;;;;;;20.50;11.25;;;14.10;99.90;;;;;;6243962;23;20102;-78
2022/10/10 13:26:56;;;;;;;25.65;11.23;;;14.10;99.90;;;;;;6246719;22;20016;-77
2022/10/10 13:29:30;;;;;;;16.50;11.35;;;14.00;99.90;;;;;;6244388;23;20023;-80
2022/10/10 13:32:03;;;;;;;17.77;11.18;;;14.00;99.90;;;;;;6245145;22;20066;-78
2022/10/10 13:34:33;;;;;;;26.10;12.30;;;14.00;99.90;;;;;;6245251;23;20012;-78
2022/10/10 13:37:00;;;;;;;18.67;11.68;;;13.90;99.90;;;;;;6246502;22;20371;-79
2022/10/10 13:39:28;;;;;;;21.90;12.60;;;13.90;99.90;;;;;;6243230;22;20018;-77
2022/10/10 13:41:55;;;;;;;21.92;12.02;;;13.90;99.90;;;;;;6245805;22;20376;-78
2022/10/10 13:44:30;;;;;;;13.98;8.20;;;13.80;99.90;;;;;;6244280;22;20073;-79
2022/10/10 13:46:56;;;;;;;8.93;4.15;;;13.90;99.90;;;;;;6243301;23;20501;-78
2022/10/10 13:49:28;;;;;;;6.40;3.20;;;13.90;99.90;;;;;;6245605;23;20016;-80
2022/10/10 13:52:18;;;;;;;6.30;1.95;;;13.80;99.90;;;;;;6242544;23;20055;-79
2022/10/10 13:54:46;;;;;;;3.67;1.65;;;14.00;99.90;;;;;;6245606;22;20027;-80
2022/10/10 13:57:17;;;;;;;6.57;1.95;;;13.40;99.90;;;;;;6242327;23;20052;-80
2022/10/10 13:59:44;;;;;;;10.60;1.88;;;13.30;99.90;;;;;;6246763;22;20020;-79
2022/10/10 14:02:14;;;;;;;11.83;2.67;;;13.20;99.90;;;;;;6245059;22;20020;-79
2022/10/10 14:04:49;;;;;;;10.07;2.28;;;13.00;99.90;;;;;;6245098;22;20380;-79
2022/10/10 14:07:22;;;;;;;8.50;2.20;;;12.80;99.90;;;;;;6242710;23;20008;-80
2022/10/10 14:09:56;;;;;;;12.88;2.53;;;12.90;99.90;;;;;;6248723;22;20020;-80
2022/10/10 14:12:34;;;;;;;8.65;1.85;;;12.70;99.90;;;;;;6247722;23;20012;-79
2022/10/10 14:15:00;;;;;;;11.10;2.03;;;12.60;99.90;;;;;;6246775;23;20016;-78
2022/10/10 14:17:28;;;;;;;11.38;1.90;;;12.50;99.90;;;;;;6246166;22;20544;-81
2022/10/10 14:19:54;;;;;;;13.52;2.38;;;12.60;99.90;;;;;;6245661;22;20031;-79
2022/10/10 14:22:20;;;;;;;9.32;2.47;;;12.60;99.90;;;;;;6244549;23;20503;-80
2022/10/10 14:24:46;;;;;;;13.02;2.30;;;12.60;99.90;;;;;;6244600;22;20039;-79
2022/10/10 14:27:22;;;;;;;9.40;2.38;;;12.50;99.90;;;;;;6242052;23;20066;-78
2022/10/10 14:29:48;;;;;;;14.50;2.38;;;12.50;99.90;;;;;;6244659;22;20020;-80
2022/10/10 14:32:15;;;;;;;10.50;2.45;;;12.50;99.90;;;;;;6246305;22;20012;-78
2022/10/10 14:34:41;;;;;;;13.65;2.05;;;12.50;99.90;;;;;;6246206;22;20055;-80
2022/10/10 14:37:18;;;;;;;18.10;3.50;;;13.30;99.90;;;;;;6247643;23;20012;-77
2022/10/10 14:39:44;;;;;;;16.60;2.85;;;12.60;99.90;;;;;;6249472;22;20023;-80
2022/10/10 14:42:12;;;;;;;15.40;2.60;;;12.60;99.90;;;;;;6251930;22;20467;-79
2022/10/10 14:44:37;;;;;;;11.50;2.72;;;12.70;99.90;;;;;;6253996;22;20058;-78
2022/10/10 14:47:03;;;;;;;11.85;2.55;;;12.70;99.90;;;;;;6250797;23;20012;-79
2022/10/10 14:49:29;;;;;;;16.23;4.00;;;12.80;99.90;;;;;;6253035;23;20012;-80
2022/10/10 14:51:54;;;;;;;19.05;2.95;;;12.90;99.90;;;;;;6243492;23;20376;-79
2022/10/10 14:54:20;;;;;;;16.08;2.85;;;12.90;99.90;;;;;;6246185;22;20403;-79
2022/10/10 14:56:45;;;;;;;12.48;2.88;;;12.90;99.90;;;;;;6245054;23;20019;-79
2022/10/10 14:59:16;;;;;;;16.02;3.10;;;12.90;99.90;;;;;;6249033;23;20016;-79
2022/10/10 15:01:42;;;;;;;15.57;3.10;;;12.90;99.90;;;;;;6246952;22;20016;-79
2022/10/10 15:04:08;;;;;;;17.50;3.67;;;13.00;99.90;;;;;;6244828;23;20012;-79
2022/10/10 15:06:34;;;;;;;18.63;3.47;;;12.90;99.90;;;;;;6245669;23;20016;-79
2022/10/10 15:08:59;;;;;;;20.80;3.22;;;13.00;99.90;;;;;;6243453;23;20012;-78
2022/10/10 15:11:25;;;;;;;24.88;3.80;;;12.90;99.90;;;;;;6218689;23;20016;-79
2022/10/10 15:13:52;;;;;;;24.05;3.38;;;13.00;99.90;;;;;;6244436;23;20031;-80
2022/10/10 15:16:18;;;;;;;15.45;3.55;;;13.10;99.90;;;;;;6245918;23;20012;-82
2022/10/10 15:18:44;;;;;;;19.85;3.00;;;13.10;99.90;;;;;;6244513;22;20016;-81
2022/10/10 15:21:10;;;;;;;18.30;3.75;;;13.00;99.90;;;;;;6244064;23;20023;-78
2022/10/10 15:23:37;;;;;;;17.92;3.38;;;13.00;99.90;;;;;;6245614;22;20027;-78
2022/10/10 15:26:03;;;;;;;12.35;2.65;;;12.90;99.90;;;;;;6245454;22;20016;-81
2022/10/10 15:28:28;;;;;;;21.95;4.18;;;12.80;99.90;;;;;;6243949;23;20496;-79
2022/10/10 15:30:54;;;;;;;19.75;3.20;;;12.70;99.90;;;;;;6245943;23;20012;-80
2022/10/10 15:33:19;;;;;;;14.75;2.83;;;12.70;99.90;;;;;;6246033;23;20091;-78
2022/10/10 15:35:45;;;;;;;15.90;3.75;;;12.70;99.90;;;;;;6247168;23;20027;-80
2022/10/10 15:38:11;;;;;;;22.92;3.17;;;12.70;99.90;;;;;;6246352;23;20016;-80
2022/10/10 15:40:36;;;;;;;12.63;2.63;;;12.60;99.90;;;;;;6246435;22;20053;-79
2022/10/10 15:43:05;;;;;;;17.05;2.92;;;12.60;99.90;;;;;;6246244;23;20139;-79
2022/10/10 15:45:30;;;;;;;15.13;3.22;;;12.60;99.90;;;;;;6246825;22;20043;-78
2022/10/10 15:47:57;;;;;;;14.35;2.95;;;12.50;99.90;;;;;;6247495;23;20012;-80
2022/10/10 15:50:25;;;;;;;18.02;3.00;;;12.50;99.90;;;;;;6246852;22;20012;-79
2022/10/10 15:52:51;;;;;;;16.52;3.25;;;12.50;99.90;;;;;;6243205;23;20056;-79
2022/10/10 15:55:17;;;;;;;16.15;2.92;;;12.40;99.90;;;;;;6247072;23;20020;-79
2022/10/10 15:57:42;;;;;;;17.13;3.60;;;12.40;99.90;;;;;;6245663;22;20133;-79
2022/10/10 16:00:08;;;;;;;27.45;3.75;;;12.90;99.90;;;;;;6245168;23;20013;-80
2022/10/10 16:02:34;;;;;;;19.63;3.70;;;12.40;99.90;;;;;;6243997;23;20337;-79
2022/10/10 16:05:00;;;;;;;16.92;3.38;;;12.40;99.90;;;;;;6245142;23;20020;-78
2022/10/10 16:07:25;;;;;;;19.58;3.85;;;12.30;99.90;;;;;;6243244;23;20096;-77
2022/10/10 16:09:51;;;;;;;18.08;3.85;;;12.30;99.90;;;;;;6243442;23;20510;-79
2022/10/10 16:12:17;;;;;;;12.30;2.70;;;12.20;99.90;;;;;;6240490;23;20023;-80
2022/10/10 16:14:42;;;;;;;16.63;3.28;;;12.20;99.90;;;;;;6245980;23;20020;-80
2022/10/10 16:17:08;;;;;;;17.00;3.28;;;12.20;99.90;;;;;;6244524;22;20099;-80
2022/10/10 16:19:34;;;;;;;20.65;3.60;;;12.20;99.90;;;;;;6245837;23;20024;-79
2022/10/10 16:21:59;;;;;;;15.75;3.53;;;12.20;99.90;;;;;;6246064;23;20016;-79
2022/10/10 16:24:25;;;;;;;17.58;3.17;;;12.20;99.90;;;;;;6245912;23;20485;-81
2022/10/10 16:26:50;;;;;;;19.33;3.72;;;12.10;99.90;;;;;;6246786;23;20012;-81
2022/10/10 16:29:17;;;;;;;17.70;2.92;;;12.00;99.90;;;;;;6245933;23;20020;-82
2022/10/10 16:31:43;;;;;;;20.20;3.25;;;12.00;99.90;;;;;;6244873;22;20098;-82
2022/10/10 16:34:11;;;;;;;12.18;3.08;;;12.00;99.90;;;;;;6243403;23;20016;-83
2022/10/10 16:36:37;;;;;;;17.50;2.90;;;11.90;99.90;;;;;;6244654;22;20024;-83
2022/10/10 16:39:03;;;;;;;15.07;3.05;;;11.90;99.90;;;;;;6241784;23;20016;-81
2022/10/10 16:41:32;;;;;;;21.83;3.63;;;11.90;99.90;;;;;;6243721;22;20106;-80
2022/10/10 16:43:58;;;;;;;17.48;4.00;;;11.90;99.90;;;;;;6244289;22;20012;-82
2022/10/10 16:46:25;;;;;;;16.08;3.20;;;11.70;99.90;;;;;;6246471;22;20091;-82
2022/10/10 16:48:52;;;;;;;15.88;3.22;;;11.70;99.90;;;;;;6248283;22;20023;-82
2022/10/10 16:51:22;;;;;;;14.90;2.50;;;12.00;99.90;;;;;;6246612;22;20019;-84
2022/10/10 16:53:49;;;;;;;22.42;3.20;;;11.70;99.90;;;;;;6245601;22;20012;-82
2022/10/10 16:56:18;;;;;;;18.25;3.13;;;11.70;99.90;;;;;;6247560;22;20022;-83
2022/10/10 16:58:44;;;;;;;12.57;3.00;;;11.70;99.90;;;;;;6247555;22;20039;-84
2022/10/10 17:01:19;;;;;;;21.25;2.97;;;11.60;99.90;;;;;;6246446;22;20445;-82
2022/10/10 17:03:45;;;;;;;17.08;2.92;;;11.60;99.90;;;;;;6246645;22;20016;-81
2022/10/10 17:06:18;;;;;;;16.20;2.80;;;11.60;99.90;;;;;;6244117;23;20020;-81
2022/10/10 17:08:45;;;;;;;22.02;3.17;;;11.80;99.90;;;;;;6245228;22;20034;-81
2022/10/10 17:11:10;;;;;;;14.10;2.63;;;11.50;99.90;;;;;;6248555;22;20016;-80
2022/10/10 17:13:40;;;;;;;18.40;3.25;;;11.50;99.90;;;;;;6221782;23;20077;-82
2022/10/10 17:16:27;;;;;;;22.15;3.55;;;11.40;99.90;;;;;;6248150;22;20060;-82
2022/10/10 17:18:53;;;;;;;26.95;3.03;;;11.50;99.90;;;;;;6249017;22;20019;-83
2022/10/10 17:21:22;;;;;;;20.58;3.55;;;11.40;99.90;;;;;;6251219;23;20031;-81
2022/10/10 17:23:48;;;;;;;15.35;3.08;;;11.30;99.90;;;;;;6253915;23;20027;-83
2022/10/10 17:26:17;;;;;;;21.85;3.55;;;11.30;99.90;;;;;;6256410;22;20051;-82
2022/10/10 17:28:43;;;;;;;26.55;3.92;;;11.30;99.90;;;;;;6256693;23;20035;-82
2022/10/10 17:31:13;;;;;;;15.07;2.97;;;11.20;99.90;;;;;;6263929;22;20016;-83
2022/10/10 17:33:41;;;;;;;27.60;4.05;;;11.80;99.90;;;;;;6264161;22;20012;-83
2022/10/10 17:36:09;;;;;;;18.92;3.55;;;11.20;99.90;;;;;;6263652;22;20079;-82
2022/10/10 17:38:36;;;;;;;14.10;2.85;;;11.20;99.90;;;;;;6262821;22;20051;-82
2022/10/10 17:41:03;;;;;;;17.45;3.55;;;12.00;99.90;;;;;;6262978;22;20012;-82
2022/10/10 17:43:28;;;;;;;18.60;3.13;;;11.10;99.90;;;;;;6260321;23;20067;-82
2022/10/10 17:45:59;;;;;;;17.48;3.17;;;11.10;99.90;;;;;;6262273;23;20016;-82
2022/10/10 17:48:25;;;;;;;18.13;4.07;;;11.00;99.90;;;;;;6265209;22;20016;-81
2022/10/10 17:50:51;;;;;;;25.38;3.95;;;11.00;99.90;;;;;;6248063;22;20000;-82
2022/10/10 17:53:16;;;;;;;18.27;3.42;;;11.00;99.90;;;;;;6273243;22;20000;-82
2022/10/10 17:55:42;;;;;;;22.88;3.40;;;10.90;99.90;;;;;;6274580;22;20004;-81
2022/10/10 17:58:11;;;;;;;12.38;2.55;;;10.90;99.90;;;;;;6274195;22;20007;-82
2022/10/10 18:00:42;;;;;;;21.75;3.55;;;10.90;99.90;;;;;;6272785;23;20004;-82
2022/10/10 18:03:08;;;;;;;13.75;2.80;;;10.90;99.90;;;;;;6268832;22;20020;-82
2022/10/10 18:05:35;;;;;;;21.48;2.90;;;11.60;99.90;;;;;;6259978;23;20023;-80
2022/10/10 18:08:02;;;;;;;20.02;3.67;;;10.80;99.90;;;;;;6232818;23;20016;-81
2022/10/10 18:10:29;;;;;;;12.07;3.22;;;10.80;99.90;;;;;;6255569;22;20012;-81
2022/10/10 18:12:56;;;;;;;14.30;3.53;;;10.90;99.90;;;;;;6256857;23;20511;-81
2022/10/10 18:15:22;;;;;;;19.30;3.58;;;10.70;99.90;;;;;;6262447;22;20016;-81
2022/10/10 18:17:48;;;;;;;17.52;3.22;;;10.80;99.90;;;;;;6265370;22;20020;-80
2022/10/10 18:20:14;;;;;;;16.17;3.42;;;10.80;99.90;;;;;;6231672;23;20016;-80
2022/10/10 18:22:40;;;;;;;14.60;3.38;;;10.70;99.90;;;;;;6255063;22;20031;-82
2022/10/10 18:25:06;;;;;;;18.83;3.22;;;10.60;99.90;;;;;;6265972;23;20027;-82
2022/10/10 18:27:31;;;;;;;12.25;3.03;;;10.60;99.90;;;;;;6246291;23;20004;-83
2022/10/10 18:29:57;;;;;;;16.08;3.75;;;10.50;99.90;;;;;;6263549;22;20111;-81
2022/10/10 18:32:23;;;;;;;20.23;3.58;;;11.00;99.90;;;;;;6259596;23;20042;-80
2022/10/10 18:34:48;;;;;;;18.75;3.28;;;10.40;99.90;;;;;;6268502;23;20015;-81
2022/10/10 18:37:14;;;;;;;27.95;4.60;;;10.40;99.90;;;;;;6266229;22;20020;-82
2022/10/10 18:39:41;;;;;;;17.92;3.90;;;10.40;99.90;;;;;;6269431;23;20012;-82
2022/10/10 18:42:07;;;;;;;30.92;5.22;;;10.30;99.90;;;;;;6271681;22;20020;-82
2022/10/10 18:44:33;;;;;;;19.15;4.25;;;10.30;99.90;;;;;;6271618;22;20020;-81
2022/10/10 18:47:01;;;;;;;13.95;3.75;;;10.20;99.90;;;;;;6267764;22;20064;-81
2022/10/10 18:49:27;;;;;;;21.77;4.22;;;10.20;99.90;;;;;;6260238;23;20012;-81
2022/10/10 18:51:53;;;;;;;20.98;3.67;;;10.80;99.90;;;;;;6253113;23;20058;-81
2022/10/10 18:54:22;;;;;;;16.48;3.63;;;10.10;99.90;;;;;;6256189;23;20027;-82
2022/10/10 18:56:48;;;;;;;20.65;4.57;;;10.10;99.90;;;;;;6257191;23;20050;-83
2022/10/10 18:59:20;;;;;;;24.52;4.97;;;10.00;99.90;;;;;;6255583;23;20016;-82
2022/10/10 19:01:45;;;;;;;17.17;3.97;;;11.10;99.90;;;;;;6254808;22;20016;-82
2022/10/10 19:04:13;;;;;;;19.67;3.95;;;9.90;99.90;;;;;;6254341;23;20016;-81
2022/10/10 19:06:42;;;;;;;17.73;3.67;;;9.90;99.90;;;;;;6255190;22;20043;-81
2022/10/10 19:09:12;;;;;;;18.70;4.03;;;10.50;99.90;;;;;;6232811;22;20119;-82
2022/10/10 19:11:45;;;;;;;12.50;3.88;;;9.60;99.90;;;;;;6258446;22;20020;-82
2022/10/10 19:14:14;;;;;;;18.50;4.18;;;9.90;99.90;;;;;;6252601;23;20024;-81
2022/10/10 19:16:41;;;;;;;18.95;4.60;;;9.90;99.90;;;;;;6229561;23;20080;-80
2022/10/10 19:19:07;;;;;;;22.55;4.65;;;9.80;99.90;;;;;;6256248;22;20040;-81
2022/10/10 19:21:35;;;;;;;23.92;4.40;;;9.90;99.90;;;;;;6251257;23;20039;-81
2022/10/10 19:24:06;;;;;;;12.10;3.78;;;9.90;99.90;;;;;;6249093;23;20065;-81
2022/10/10 19:26:33;;;;;;;28.33;5.13;;;10.00;99.90;;;;;;6251866;22;20305;-81
2022/10/10 19:29:00;;;;;;;17.25;4.47;;;10.00;99.90;;;;;;6249579;23;20460;-81
2022/10/10 19:31:29;;;;;;;29.70;4.70;;;10.10;99.90;;;;;;6247062;23;20433;-81
2022/10/10 19:33:56;;;;;;;20.92;3.88;;;10.10;99.90;;;;;;6252356;22;20012;-83
2022/10/10 19:36:22;;;;;;;23.13;4.47;;;10.20;99.90;;;;;;6253629;22;20039;-82
2022/10/10 19:38:48;;;;;;;21.27;3.35;;;10.70;99.90;;;;;;6253961;22;20515;-82
2022/10/10 19:41:15;;;;;;;15.23;3.65;;;10.20;99.90;;;;;;6254033;22;20020;-82
2022/10/10 19:43:43;;;;;;;14.18;2.90;;;10.20;99.90;;;;;;6252882;22;20044;-81
2022/10/10 19:46:11;;;;;;;17.58;3.15;;;10.20;99.90;;;;;;6251508;22;20027;-83
2022/10/10 19:48:37;;;;;;;;;;;10.20;99.90;;;;;;6258530;22;20122;-81
2022/10/10 19:51:08;;;;;;;18.63;3.67;;;10.20;99.90;;;;;;6260301;22;19915;-82
2022/10/10 19:53:35;;;;;;;26.38;4.97;;;10.20;99.90;;;;;;6263425;22;20016;-80
2022/10/10 19:56:06;;;;;;;18.42;4.60;;;10.40;99.90;;;;;;6257011;22;20016;-82
2022/10/10 19:58:33;;;;;;;22.92;4.72;;;10.10;99.90;;;;;;6259911;22;20035;-80
2022/10/10 20:00:59;;;;;;;22.33;3.83;;;10.10;99.90;;;;;;6256202;22;20016;-82
2022/10/10 20:03:25;;;;;;;23.83;4.10;;;10.10;99.90;;;;;;6255289;22;20282;-82
2022/10/10 20:05:50;;;;;;;16.77;4.25;;;10.10;99.90;;;;;;6255533;23;20023;-80
2022/10/10 20:08:16;;;;;;;24.15;4.00;;;10.00;99.90;;;;;;6256646;23;20107;-82
2022/10/10 20:10:42;;;;;;;21.73;3.83;;;10.00;99.90;;;;;;6256583;22;20013;-81
2022/10/10 20:13:13;;;;;;;20.65;4.07;;;10.00;99.90;;;;;;6259821;22;20023;-82
2022/10/10 20:15:43;;;;;;;24.05;3.92;;;9.90;99.90;;;;;;6265911;22;20067;-81
2022/10/10 20:18:10;;;;;;;20.58;4.20;;;11.20;99.90;;;;;;6262203;22;20067;-82
2022/10/10 20:20:39;;;;;;;21.23;3.72;;;9.90;99.90;;;;;;6256904;22;20031;-82
2022/10/10 20:23:05;;;;;;;19.42;3.85;;;10.00;99.90;;;;;;6230762;23;20031;-84
2022/10/10 20:25:31;;;;;;;23.55;4.50;;;9.80;99.90;;;;;;6254480;23;20019;-84
2022/10/10 20:27:56;;;;;;;21.98;4.63;;;9.80;99.90;;;;;;6250873;23;20095;-84
2022/10/10 20:30:22;;;;;;;20.30;4.05;;;9.70;99.90;;;;;;6251759;23;20093;-83
2022/10/10 20:32:48;;;;;;;25.23;4.10;;;9.70;99.90;;;;;;6222916;23;20047;-82
2022/10/10 20:35:17;;;;;;;18.20;4.05;;;9.70;99.90;;;;;;6251142;23;20020;-85
2022/10/10 20:37:43;;;;;;;16.38;4.53;;;9.60;99.90;;;;;;6251021;22;20019;-83
2022/10/10 20:40:09;;;;;;;23.60;4.32;;;10.70;99.90;;;;;;6248825;22;20012;-84
2022/10/10 20:42:35;;;;;;;21.63;3.88;;;9.60;99.90;;;;;;6248417;23;20162;-83
2022/10/10 20:45:00;;;;;;;24.35;4.05;;;9.60;99.90;;;;;;6247014;23;20018;-83
2022/10/10 20:47:26;;;;;;;16.48;3.53;;;9.50;99.90;;;;;;6249995;22;20016;-82
2022/10/10 20:49:52;;;;;;;21.98;3.95;;;9.50;99.90;;;;;;6250998;23;20020;-82
2022/10/10 20:52:17;;;;;;;19.70;3.88;;;9.50;99.90;;;;;;6255139;23;20099;-82
2022/10/10 20:54:43;;;;;;;20.30;4.53;;;9.50;99.90;;;;;;6267961;22;20016;-83
2022/10/10 20:57:09;;;;;;;21.33;4.32;;;9.40;99.90;;;;;;6268618;23;20063;-82
2022/10/10 20:59:34;;;;;;;19.13;4.85;;;10.40;99.90;;;;;;6260326;22;20342;-83
2022/10/10 21:02:01;;;;;;;14.75;3.65;;;9.40;99.90;;;;;;6260069;23;20016;-82
2022/10/10 21:04:26;;;;;;;27.60;4.85;;;9.30;99.90;;;;;;6258986;22;20020;-83
2022/10/10 21:06:52;;;;;;;20.88;4.82;;;9.30;99.90;;;;;;6253631;22;20023;-80
2022/10/10 21:09:18;;;;;;;20.80;4.25;;;9.30;99.90;;;;;;6252063;23;20079;-81
2022/10/10 21:11:43;;;;;;;21.73;4.15;;;9.20;99.90;;;;;;6253758;23;20020;-81
2022/10/10 21:14:09;;;;;;;22.95;4.32;;;9.20;99.90;;;;;;6227304;23;20024;-81
2022/10/10 21:16:38;;;;;;;25.15;4.28;;;10.30;99.90;;;;;;6254657;23;20046;-81
2022/10/10 21:19:06;;;;;;;16.23;3.85;;;9.10;99.90;;;;;;6249921;23;20444;-83
2022/10/10 21:21:33;;;;;;;23.08;4.20;;;9.10;99.90;;;;;;6252856;22;20023;-82
2022/10/10 21:24:00;;;;;;;27.30;5.03;;;9.30;99.90;;;;;;6257318;22;20012;-79
2022/10/10 21:26:27;;;;;;;22.92;4.90;;;9.10;99.90;;;;;;6254684;22;20058;-80
2022/10/10 21:28:55;;;;;;;18.65;4.20;;;9.00;99.90;;;;;;6250164;23;20039;-80
2022/10/10 21:31:32;;;;;;;17.58;5.50;;;9.00;99.90;;;;;;6250578;22;20078;-79
2022/10/10 21:33:59;;;;;;;18.27;6.00;;;9.00;99.90;;;;;;6248717;23;20016;-79
2022/10/10 21:36:25;;;;;;;27.95;8.82;;;9.00;99.90;;;;;;6250557;22;20022;-79
2022/10/10 21:38:52;;;;;;;23.73;6.25;;;9.10;99.90;;;;;;6248898;22;20456;-80
2022/10/10 21:41:20;;;;;;;23.63;5.60;;;9.40;99.90;;;;;;6249006;22;20441;-79
2022/10/10 21:43:51;;;;;;;25.08;5.30;;;8.90;99.90;;;;;;6249717;22;20378;-79
2022/10/10 21:46:18;;;;;;;17.05;4.70;;;8.90;99.90;;;;;;6249467;22;20040;-80
2022/10/10 21:48:44;;;;;;;21.92;4.72;;;8.80;99.90;;;;;;6249440;22;20486;-80
2022/10/10 21:51:10;;;;;;;21.40;5.10;;;8.80;99.90;;;;;;6248175;23;20020;-79
2022/10/10 21:53:36;;;;;;;26.17;5.20;;;8.80;99.90;;;;;;6249987;22;20066;-79
2022/10/10 21:56:07;;;;;;;17.08;4.50;;;9.20;99.90;;;;;;6249160;22;20015;-79
2022/10/10 21:58:39;;;;;;;31.55;4.38;;;8.80;99.90;;;;;;6248597;22;20357;-79
2022/10/10 22:01:14;;;;;;;15.40;3.90;;;8.70;99.90;;;;;;6249949;22;20016;-79
2022/10/10 22:03:40;;;;;;;19.67;4.30;;;8.70;99.90;;;;;;6249642;22;20019;-80
2022/10/10 22:06:09;;;;;;;19.83;4.28;;;8.70;99.90;;;;;;6247811;23;20101;-80
2022/10/10 22:08:36;;;;;;;15.70;3.95;;;8.70;99.90;;;;;;6250048;23;20016;-80
2022/10/10 22:11:08;;;;;;;23.48;4.63;;;8.70;99.90;;;;;;6252027;22;20086;-79
2022/10/10 22:13:33;;;;;;;18.48;4.18;;;8.60;99.90;;;;;;6251788;23;20020;-79
2022/10/10 22:15:59;;;;;;;27.40;4.45;;;8.80;99.90;;;;;;6252111;23;20098;-79
2022/10/10 22:18:25;;;;;;;20.17;4.22;;;8.60;99.90;;;;;;6253967;23;20497;-80
2022/10/10 22:20:51;;;;;;;16.17;3.63;;;8.60;99.90;;;;;;6250891;23;20042;-79
2022/10/10 22:23:18;;;;;;;13.27;3.90;;;8.60;99.90;;;;;;6251135;22;20023;-80
2022/10/10 22:25:45;;;;;;;15.23;3.67;;;8.50;99.90;;;;;;6250218;22;20013;-80
2022/10/10 22:28:10;;;;;;;20.17;3.97;;;8.50;99.90;;;;;;6250222;22;20019;-80
2022/10/10 22:30:36;;;;;;;26.50;4.93;;;8.50;99.90;;;;;;6247788;23;20016;-80
2022/10/10 22:33:02;;;;;;;18.83;3.95;;;8.50;99.90;;;;;;6250025;22;20055;-80
2022/10/10 22:35:27;;;;;;;23.23;4.30;;;8.90;99.90;;;;;;6249904;23;20019;-81
2022/10/10 22:37:53;;;;;;;21.92;4.22;;;8.50;99.90;;;;;;6249710;23;20393;-80
2022/10/10 22:40:21;;;;;;;23.58;4.32;;;8.50;99.90;;;;;;6250600;22;20035;-80
2022/10/10 22:42:46;;;;;;;19.73;4.13;;;8.50;99.90;;;;;;6250617;22;20027;-80
2022/10/10 22:45:12;;;;;;;20.52;4.32;;;8.50;99.90;;;;;;6250022;23;20011;-81
2022/10/10 22:47:37;;;;;;;18.13;3.38;;;8.50;99.90;;;;;;6250084;23;20012;-80
2022/10/10 22:50:04;;;;;;;20.42;3.38;;;8.50;99.90;;;;;;6249920;23;20013;-80
2022/10/10 22:52:29;;;;;;;21.50;3.78;;;8.60;99.90;;;;;;6252876;22;20017;-80
2022/10/10 22:54:55;;;;;;;15.52;3.22;;;8.60;99.90;;;;;;6254856;22;20019;-80
2022/10/10 22:57:21;;;;;;;19.95;3.22;;;8.60;99.90;;;;;;6251303;23;20020;-81
2022/10/10 22:59:47;;;;;;;22.92;3.20;;;8.90;99.90;;;;;;6251643;23;20043;-79
2022/10/10 23:02:12;;;;;;;17.10;3.25;;;8.70;99.90;;;;;;6251047;22;20044;-80
2022/10/10 23:04:38;;;;;;;14.45;3.25;;;8.70;99.90;;;;;;6250451;23;20023;-80
2022/10/10 23:07:04;;;;;;;15.88;2.88;;;8.80;99.90;;;;;;6251008;23;20016;-80
2022/10/10 23:09:29;;;;;;;13.93;2.08;;;8.80;99.90;;;;;;6249232;22;20008;-79
2022/10/10 23:11:55;;;;;;;16.00;3.00;;;8.80;99.90;;;;;;6251624;23;20027;-80
2022/10/10 23:14:21;;;;;;;22.35;4.38;;;8.80;99.90;;;;;;6250382;23;20306;-80
2022/10/10 23:16:46;;;;;;;16.83;2.88;;;8.80;99.90;;;;;;6249319;23;20020;-81
2022/10/10 23:19:12;;;;;;;18.70;3.30;;;8.80;99.90;;;;;;6249372;23;20012;-81
2022/10/10 23:21:38;;;;;;;12.55;2.58;;;8.80;99.90;;;;;;6250724;23;20008;-81
2022/10/10 23:24:06;;;;;;;13.18;2.63;;;8.80;99.90;;;;;;6250102;23;20027;-81
2022/10/10 23:26:32;;;;;;;18.63;3.50;;;8.70;99.90;;;;;;6249151;22;20013;-79
2022/10/10 23:28:58;;;;;;;16.67;2.97;;;8.70;99.90;;;;;;6251163;23;20019;-80
2022/10/10 23:31:24;;;;;;;18.08;2.97;;;8.80;99.90;;;;;;6252189;23;20337;-80
2022/10/10 23:33:49;;;;;;;16.20;3.75;;;8.70;99.90;;;;;;6251951;23;20114;-81
2022/10/10 23:36:15;;;;;;;13.63;3.00;;;8.70;99.90;;;;;;6249525;23;20479;-81
2022/10/10 23:38:41;;;;;;;13.48;3.20;;;8.70;99.90;;;;;;6249651;22;20017;-79
2022/10/10 23:41:08;;;;;;;25.30;4.13;;;8.80;99.90;;;;;;6253985;22;20020;-80
2022/10/10 23:43:34;;;;;;;12.68;2.90;;;8.70;99.90;;;;;;6249703;23;20024;-79
2022/10/10 23:46:00;;;;;;;14.57;3.40;;;8.70;99.90;;;;;;6248360;22;20016;-80
2022/10/10 23:48:25;;;;;;;14.30;3.30;;;8.60;99.90;;;;;;6247453;22;20012;-80
2022/10/10 23:50:51;;;;;;;19.67;3.55;;;8.60;99.90;;;;;;6249430;23;20087;-81
2022/10/10 23:53:17;;;;;;;13.57;4.05;;;8.60;99.90;;;;;;6249785;23;20065;-81
2022/10/10 23:55:44;;;;;;;20.30;3.30;;;8.60;99.90;;;;;;6250134;23;20600;-80
2022/10/10 23:58:10;;;;;;;18.10;4.00;;;8.50;99.90;;;;;;6259949;22;20012;-80
